sensor_id;sensor_type;location;lat;lon;timestamp;pressure;altitude;pressure_sealevel;temperature;humidity
37170;BME280;23062;13.952;100.608;2023-04-01T00:00:23;1009.79;;;31.81;64.29
37170;BME280;23062;13.952;100.608;2023-04-01T00:04:48;1009.86;;;31.67;64.65
37170;BME280;23062;13.952;100.608;2023-04-01T00:09:13;1009.87;;;31.70;64.66
37170;BME280;23062;13.952;100.608;2023-04-01T00:13:38;1009.90;;;31.70;64.58
37170;BME280;23062;13.952;100.608;2023-04-01T00:18:03;1009.95;;;31.63;65.10
37170;BME280;23062;13.952;100.608;2023-04-01T00:22:29;1010.01;;;31.54;65.09
37170;BME280;23062;13.952;100.608;2023-04-01T00:26:54;1010.03;;;31.63;65.26
37170;BME280;23062;13.952;100.608;2023-04-01T00:31:19;1010.06;;;31.59;65.28
37170;BME280;23062;13.952;100.608;2023-04-01T00:35:44;1010.12;;;31.62;65.24
37170;BME280;23062;13.952;100.608;2023-04-01T00:40:21;1010.20;;;31.50;65.70
37170;BME280;23062;13.952;100.608;2023-04-01T00:44:39;1010.31;;;31.54;65.67
37170;BME280;23062;13.952;100.608;2023-04-01T00:49:03;1010.36;;;31.63;65.50
37170;BME280;23062;13.952;100.608;2023-04-01T00:53:30;1010.47;;;31.69;65.36
37170;BME280;23062;13.952;100.608;2023-04-01T00:57:57;1010.55;;;31.72;65.42
37170;BME280;23062;13.952;100.608;2023-04-01T01:02:24;1010.61;;;31.78;65.24
37170;BME280;23062;13.952;100.608;2023-04-01T01:11:46;1010.67;;;31.83;65.18
37170;BME280;23062;13.952;100.608;2023-04-01T01:16:14;1010.65;;;31.80;65.17
37170;BME280;23062;13.952;100.608;2023-04-01T01:30:26;1010.79;;;31.86;64.93
37170;BME280;23062;13.952;100.608;2023-04-01T01:39:38;1010.98;;;31.86;63.93
37170;BME280;23062;13.952;100.608;2023-04-01T01:44:06;1010.95;;;31.89;63.45
37170;BME280;23062;13.952;100.608;2023-04-01T01:48:36;1010.92;;;31.92;63.38
37170;BME280;23062;13.952;100.608;2023-04-01T01:53:04;1010.91;;;31.96;63.32
37170;BME280;23062;13.952;100.608;2023-04-01T01:57:33;1010.91;;;31.98;62.94
37170;BME280;23062;13.952;100.608;2023-04-01T02:02:03;1010.87;;;32.03;62.63
37170;BME280;23062;13.952;100.608;2023-04-01T02:06:31;1010.86;;;32.08;62.66
37170;BME280;23062;13.952;100.608;2023-04-01T02:11:03;1010.85;;;32.11;62.41
37170;BME280;23062;13.952;100.608;2023-04-01T02:15:30;1010.85;;;32.15;62.40
37170;BME280;23062;13.952;100.608;2023-04-01T02:20:02;1010.85;;;32.18;62.43
37170;BME280;23062;13.952;100.608;2023-04-01T02:24:29;1010.88;;;32.17;62.12
37170;BME280;23062;13.952;100.608;2023-04-01T02:28:56;1010.89;;;32.19;62.13
37170;BME280;23062;13.952;100.608;2023-04-01T02:33:23;1010.96;;;32.20;62.07
37170;BME280;23062;13.952;100.608;2023-04-01T02:37:49;1010.97;;;32.23;62.07
37170;BME280;23062;13.952;100.608;2023-04-01T02:42:16;1010.97;;;32.21;61.87
37170;BME280;23062;13.952;100.608;2023-04-01T02:46:43;1011.00;;;32.23;61.64
37170;BME280;23062;13.952;100.608;2023-04-01T02:51:09;1011.02;;;32.26;61.45
37170;BME280;23062;13.952;100.608;2023-04-01T02:55:34;1011.04;;;32.31;61.09
37170;BME280;23062;13.952;100.608;2023-04-01T03:00:06;1010.97;;;32.34;60.42
37170;BME280;23062;13.952;100.608;2023-04-01T03:04:32;1010.92;;;32.33;60.28
37170;BME280;23062;13.952;100.608;2023-04-01T03:08:58;1010.95;;;32.39;60.03
37170;BME280;23062;13.952;100.608;2023-04-01T03:13:22;1010.97;;;32.37;60.11
37170;BME280;23062;13.952;100.608;2023-04-01T03:17:47;1010.89;;;32.36;60.27
37170;BME280;23062;13.952;100.608;2023-04-01T03:22:16;1010.90;;;32.37;60.06
37170;BME280;23062;13.952;100.608;2023-04-01T03:26:42;1010.85;;;32.37;59.85
37170;BME280;23062;13.952;100.608;2023-04-01T03:31:07;1010.84;;;32.35;59.72
37170;BME280;23062;13.952;100.608;2023-04-01T03:35:33;1010.74;;;32.38;59.61
37170;BME280;23062;13.952;100.608;2023-04-01T03:40:00;1010.76;;;32.37;59.55
37170;BME280;23062;13.952;100.608;2023-04-01T03:44:24;1010.73;;;32.38;59.64
37170;BME280;23062;13.952;100.608;2023-04-01T03:48:49;1010.63;;;32.40;59.54
37170;BME280;23062;13.952;100.608;2023-04-01T03:53:17;1010.52;;;32.39;59.55
37170;BME280;23062;13.952;100.608;2023-04-01T03:57:45;1010.53;;;32.43;59.19
37170;BME280;23062;13.952;100.608;2023-04-01T04:02:18;1010.47;;;32.46;58.82
37170;BME280;23062;13.952;100.608;2023-04-01T04:06:44;1010.31;;;32.49;58.33
37170;BME280;23062;13.952;100.608;2023-04-01T04:11:09;1010.24;;;32.58;57.02
37170;BME280;23062;13.952;100.608;2023-04-01T04:15:35;1010.17;;;32.63;57.68
37170;BME280;23062;13.952;100.608;2023-04-01T04:20:00;1010.09;;;32.67;57.57
37170;BME280;23062;13.952;100.608;2023-04-01T04:24:25;1010.13;;;32.72;57.38
37170;BME280;23062;13.952;100.608;2023-04-01T04:28:51;1009.99;;;32.74;57.36
37170;BME280;23062;13.952;100.608;2023-04-01T04:33:16;1009.90;;;32.71;57.12
37170;BME280;23062;13.952;100.608;2023-04-01T04:37:41;1009.75;;;32.79;56.78
37170;BME280;23062;13.952;100.608;2023-04-01T04:42:06;1009.67;;;32.87;56.68
37170;BME280;23062;13.952;100.608;2023-04-01T04:46:31;1009.65;;;32.85;56.68
37170;BME280;23062;13.952;100.608;2023-04-01T04:50:56;1009.61;;;32.84;56.80
37170;BME280;23062;13.952;100.608;2023-04-01T04:55:21;1009.54;;;32.90;55.94
37170;BME280;23062;13.952;100.608;2023-04-01T04:59:46;1009.46;;;32.95;55.63
37170;BME280;23062;13.952;100.608;2023-04-01T05:04:11;1009.39;;;32.91;55.47
37170;BME280;23062;13.952;100.608;2023-04-01T05:08:36;1009.29;;;32.96;54.96
37170;BME280;23062;13.952;100.608;2023-04-01T05:13:05;1009.19;;;32.97;55.14
37170;BME280;23062;13.952;100.608;2023-04-01T05:17:31;1009.13;;;32.93;55.23
37170;BME280;23062;13.952;100.608;2023-04-01T05:21:58;1009.08;;;32.94;55.37
37170;BME280;23062;13.952;100.608;2023-04-01T05:26:24;1008.94;;;32.95;55.63
37170;BME280;23062;13.952;100.608;2023-04-01T05:30:49;1008.93;;;32.99;55.63
37170;BME280;23062;13.952;100.608;2023-04-01T05:35:14;1008.88;;;33.03;55.66
37170;BME280;23062;13.952;100.608;2023-04-01T05:39:41;1008.76;;;33.08;55.68
37170;BME280;23062;13.952;100.608;2023-04-01T05:44:07;1008.73;;;33.09;55.33
37170;BME280;23062;13.952;100.608;2023-04-01T05:48:37;1008.61;;;33.18;55.00
37170;BME280;23062;13.952;100.608;2023-04-01T05:52:58;1008.49;;;33.19;54.97
37170;BME280;23062;13.952;100.608;2023-04-01T05:57:23;1008.42;;;33.22;54.93
37170;BME280;23062;13.952;100.608;2023-04-01T06:01:48;1008.29;;;33.24;54.81
37170;BME280;23062;13.952;100.608;2023-04-01T06:06:27;1008.19;;;33.24;55.06
37170;BME280;23062;13.952;100.608;2023-04-01T06:11:19;1008.11;;;33.20;55.16
37170;BME280;23062;13.952;100.608;2023-04-01T06:15:48;1007.97;;;33.25;54.86
37170;BME280;23062;13.952;100.608;2023-04-01T06:44:33;1007.35;;;33.30;53.85
37170;BME280;23062;13.952;100.608;2023-04-01T06:49:03;1007.27;;;33.39;52.92
37170;BME280;23062;13.952;100.608;2023-04-01T06:58:24;1007.19;;;33.37;52.77
37170;BME280;23062;13.952;100.608;2023-04-01T07:02:56;1007.14;;;33.44;52.49
37170;BME280;23062;13.952;100.608;2023-04-01T07:07:21;1007.00;;;33.44;52.18
37170;BME280;23062;13.952;100.608;2023-04-01T07:11:46;1006.90;;;33.44;51.72
37170;BME280;23062;13.952;100.608;2023-04-01T07:16:21;1006.79;;;33.47;51.53
37170;BME280;23062;13.952;100.608;2023-04-01T07:20:54;1006.70;;;33.44;51.64
37170;BME280;23062;13.952;100.608;2023-04-01T07:25:29;1006.56;;;33.52;50.25
37170;BME280;23062;13.952;100.608;2023-04-01T07:29:58;1006.48;;;33.48;50.29
37170;BME280;23062;13.952;100.608;2023-04-01T07:34:46;1006.36;;;33.51;49.71
37170;BME280;23062;13.952;100.608;2023-04-01T07:39:28;1006.32;;;33.57;50.02
37170;BME280;23062;13.952;100.608;2023-04-01T07:44:19;1006.33;;;33.64;48.64
37170;BME280;23062;13.952;100.608;2023-04-01T07:48:57;1006.21;;;33.52;49.25
37170;BME280;23062;13.952;100.608;2023-04-01T07:53:40;1006.13;;;33.49;49.32
37170;BME280;23062;13.952;100.608;2023-04-01T08:12:50;1005.78;;;33.51;48.93
37170;BME280;23062;13.952;100.608;2023-04-01T08:17:26;1005.71;;;33.65;48.17
37170;BME280;23062;13.952;100.608;2023-04-01T08:21:52;1005.62;;;33.63;47.66
37170;BME280;23062;13.952;100.608;2023-04-01T08:26:40;1005.50;;;33.58;48.27
37170;BME280;23062;13.952;100.608;2023-04-01T08:31:12;1005.37;;;33.58;48.52
37170;BME280;23062;13.952;100.608;2023-04-01T08:35:59;1005.32;;;33.61;48.41
37170;BME280;23062;13.952;100.608;2023-04-01T08:55:30;1005.44;;;33.51;48.61
37170;BME280;23062;13.952;100.608;2023-04-01T09:00:10;1005.39;;;33.58;47.97
37170;BME280;23062;13.952;100.608;2023-04-01T09:04:47;1005.31;;;33.54;48.45
37170;BME280;23062;13.952;100.608;2023-04-01T09:09:44;1005.50;;;33.56;48.75
37170;BME280;23062;13.952;100.608;2023-04-01T09:14:25;1005.42;;;33.53;49.08
37170;BME280;23062;13.952;100.608;2023-04-01T09:23:52;1005.37;;;33.50;49.31
37170;BME280;23062;13.952;100.608;2023-04-01T09:28:24;1005.38;;;33.48;49.29
37170;BME280;23062;13.952;100.608;2023-04-01T09:33:07;1005.37;;;33.49;49.42
37170;BME280;23062;13.952;100.608;2023-04-01T09:46:54;1005.31;;;33.48;49.77
37170;BME280;23062;13.952;100.608;2023-04-01T09:51:33;1005.32;;;33.50;50.01
37170;BME280;23062;13.952;100.608;2023-04-01T10:15:38;1005.54;;;33.40;50.71
37170;BME280;23062;13.952;100.608;2023-04-01T10:34:31;1005.71;;;33.33;52.12
37170;BME280;23062;13.952;100.608;2023-04-01T10:39:06;1005.71;;;33.33;52.13
37170;BME280;23062;13.952;100.608;2023-04-01T10:43:50;1005.71;;;33.30;52.39
37170;BME280;23062;13.952;100.608;2023-04-01T10:48:26;1005.79;;;33.30;52.46
37170;BME280;23062;13.952;100.608;2023-04-01T10:53:14;1005.79;;;33.32;52.34
37170;BME280;23062;13.952;100.608;2023-04-01T11:17:37;1006.27;;;33.21;53.60
37170;BME280;23062;13.952;100.608;2023-04-01T11:36:37;1006.32;;;33.10;54.18
37170;BME280;23062;13.952;100.608;2023-04-01T11:41:30;1006.43;;;33.09;54.35
37170;BME280;23062;13.952;100.608;2023-04-01T11:46:15;1006.45;;;33.07;54.52
37170;BME280;23062;13.952;100.608;2023-04-01T12:05:37;1006.46;;;32.95;54.12
37170;BME280;23062;13.952;100.608;2023-04-01T12:10:18;1006.52;;;32.92;54.16
37170;BME280;23062;13.952;100.608;2023-04-01T12:19:51;1006.52;;;32.84;54.35
37170;BME280;23062;13.952;100.608;2023-04-01T12:24:31;1006.58;;;32.84;54.42
37170;BME280;23062;13.952;100.608;2023-04-01T12:29:18;1006.67;;;32.81;54.71
37170;BME280;23062;13.952;100.608;2023-04-01T12:52:18;1007.35;;;32.77;54.61
37170;BME280;23062;13.952;100.608;2023-04-01T13:01:58;1007.49;;;32.77;54.44
37170;BME280;23062;13.952;100.608;2023-04-01T13:15:58;1007.79;;;32.75;54.98
37170;BME280;23062;13.952;100.608;2023-04-01T13:25:34;1008.09;;;32.86;55.07
37170;BME280;23062;13.952;100.608;2023-04-01T13:34:45;1008.28;;;32.89;55.27
37170;BME280;23062;13.952;100.608;2023-04-01T13:43:48;1008.22;;;32.89;55.46
37170;BME280;23062;13.952;100.608;2023-04-01T14:02:44;1008.66;;;32.96;55.88
37170;BME280;23062;13.952;100.608;2023-04-01T14:12:04;1008.69;;;33.16;55.27
37170;BME280;23062;13.952;100.608;2023-04-01T14:30:27;1008.73;;;33.16;55.18
37170;BME280;23062;13.952;100.608;2023-04-01T14:35:16;1008.82;;;33.15;55.20
37170;BME280;23062;13.952;100.608;2023-04-01T14:40:00;1008.75;;;33.13;55.24
37170;BME280;23062;13.952;100.608;2023-04-01T14:54:02;1009.11;;;33.12;55.36
37170;BME280;23062;13.952;100.608;2023-04-01T14:58:44;1009.10;;;33.10;55.33
37170;BME280;23062;13.952;100.608;2023-04-01T15:08:01;1009.09;;;33.08;55.29
37170;BME280;23062;13.952;100.608;2023-04-01T15:22:25;1009.18;;;33.06;55.39
37170;BME280;23062;13.952;100.608;2023-04-01T15:27:02;1009.18;;;33.05;55.41
37170;BME280;23062;13.952;100.608;2023-04-01T15:50:28;1009.37;;;33.02;55.87
37170;BME280;23062;13.952;100.608;2023-04-01T16:04:57;1009.50;;;32.99;56.37
37170;BME280;23062;13.952;100.608;2023-04-01T16:29:03;1009.64;;;32.93;57.49
37170;BME280;23062;13.952;100.608;2023-04-01T16:33:05;1009.62;;;32.93;57.19
37170;BME280;23062;13.952;100.608;2023-04-01T16:37:41;1009.70;;;32.92;57.68
37170;BME280;23062;13.952;100.608;2023-04-01T16:47:14;1009.58;;;32.89;57.81
37170;BME280;23062;13.952;100.608;2023-04-01T16:52:12;1009.57;;;32.90;57.82
37170;BME280;23062;13.952;100.608;2023-04-01T16:56:47;1009.52;;;32.88;57.51
37170;BME280;23062;13.952;100.608;2023-04-01T17:01:20;1009.51;;;32.88;57.27
37170;BME280;23062;13.952;100.608;2023-04-01T17:05:59;1009.49;;;32.86;57.58
37170;BME280;23062;13.952;100.608;2023-04-01T17:10:46;1009.39;;;32.85;57.29
37170;BME280;23062;13.952;100.608;2023-04-01T17:25:25;1009.34;;;32.84;57.36
37170;BME280;23062;13.952;100.608;2023-04-01T17:39:44;1009.18;;;32.80;57.61
37170;BME280;23062;13.952;100.608;2023-04-01T17:44:38;1009.13;;;32.80;57.48
37170;BME280;23062;13.952;100.608;2023-04-01T17:49:33;1009.03;;;32.80;57.73
37170;BME280;23062;13.952;100.608;2023-04-01T17:54:05;1008.95;;;32.79;57.67
37170;BME280;23062;13.952;100.608;2023-04-01T17:58:37;1008.87;;;32.78;57.82
37170;BME280;23062;13.952;100.608;2023-04-01T18:17:42;1008.47;;;32.72;58.17
37170;BME280;23062;13.952;100.608;2023-04-01T18:22:28;1008.44;;;32.71;58.07
37170;BME280;23062;13.952;100.608;2023-04-01T18:27:04;1008.38;;;32.71;58.25
37170;BME280;23062;13.952;100.608;2023-04-01T18:31:38;1008.32;;;32.69;58.58
37170;BME280;23062;13.952;100.608;2023-04-01T18:45:54;1008.22;;;32.65;58.07
37170;BME280;23062;13.952;100.608;2023-04-01T18:50:41;1008.18;;;32.65;58.23
37170;BME280;23062;13.952;100.608;2023-04-01T19:04:26;1008.24;;;32.61;57.82
37170;BME280;23062;13.952;100.608;2023-04-01T19:08:51;1008.18;;;32.61;58.22
37170;BME280;23062;13.952;100.608;2023-04-01T19:13:36;1008.18;;;32.60;58.26
37170;BME280;23062;13.952;100.608;2023-04-01T19:36:49;1007.98;;;32.58;58.42
37170;BME280;23062;13.952;100.608;2023-04-01T19:41:36;1008.05;;;32.56;57.64
37170;BME280;23062;13.952;100.608;2023-04-01T19:51:00;1007.96;;;32.54;57.93
37170;BME280;23062;13.952;100.608;2023-04-01T20:00:07;1007.92;;;32.52;57.73
37170;BME280;23062;13.952;100.608;2023-04-01T20:04:45;1008.00;;;32.53;57.81
37170;BME280;23062;13.952;100.608;2023-04-01T20:09:24;1007.94;;;32.52;57.65
37170;BME280;23062;13.952;100.608;2023-04-01T20:27:40;1008.00;;;32.50;57.76
37170;BME280;23062;13.952;100.608;2023-04-01T20:36:58;1008.00;;;32.47;57.90
37170;BME280;23062;13.952;100.608;2023-04-01T20:41:45;1007.99;;;32.48;57.85
37170;BME280;23062;13.952;100.608;2023-04-01T20:46:20;1007.91;;;32.47;57.93
37170;BME280;23062;13.952;100.608;2023-04-01T20:51:08;1007.90;;;32.47;57.96
37170;BME280;23062;13.952;100.608;2023-04-01T21:10:06;1008.00;;;32.43;58.19
37170;BME280;23062;13.952;100.608;2023-04-01T22:06:50;1008.24;;;32.01;62.00
37170;BME280;23062;13.952;100.608;2023-04-01T22:20:54;1008.33;;;31.88;63.04
37170;BME280;23062;13.952;100.608;2023-04-01T22:25:39;1008.40;;;31.77;63.60
37170;BME280;23062;13.952;100.608;2023-04-01T22:30:13;1008.47;;;31.79;63.15
37170;BME280;23062;13.952;100.608;2023-04-01T22:43:45;1008.61;;;31.89;63.16
37170;BME280;23062;13.952;100.608;2023-04-01T22:48:18;1008.67;;;31.91;62.88
37170;BME280;23062;13.952;100.608;2023-04-01T22:52:46;1008.69;;;31.94;62.82
37170;BME280;23062;13.952;100.608;2023-04-01T23:02:17;1008.79;;;31.86;63.17
37170;BME280;23062;13.952;100.608;2023-04-01T23:06:46;1008.89;;;31.85;63.15
37170;BME280;23062;13.952;100.608;2023-04-01T23:11:15;1008.96;;;31.89;62.77
37170;BME280;23062;13.952;100.608;2023-04-01T23:15:41;1008.98;;;31.89;62.96
37170;BME280;23062;13.952;100.608;2023-04-01T23:21:00;1009.03;;;31.90;62.77
37170;BME280;23062;13.952;100.608;2023-04-01T23:29:48;1009.10;;;31.89;63.01
37170;BME280;23062;13.952;100.608;2023-04-01T23:34:22;1009.24;;;31.90;62.71
37170;BME280;23062;13.952;100.608;2023-04-01T23:38:48;1009.37;;;31.89;62.94
37170;BME280;23062;13.952;100.608;2023-04-01T23:43:21;1009.41;;;31.91;62.90
37170;BME280;23062;13.952;100.608;2023-04-01T23:47:42;1009.54;;;31.92;63.02
37170;BME280;23062;13.952;100.608;2023-04-01T23:52:23;1009.63;;;31.95;62.77
37170;BME280;23062;13.952;100.608;2023-04-01T23:56:55;1009.63;;;31.93;62.85
